Time;durP1;ratioP1;P1;durP2;ratioP2;P2;SDS_P1;SDS_P2;PMS_P1;PMS_P2;Temp;Humidity;BMP_temperature;BMP_pressure;BME280_temperature;BME280_humidity;BME280_pressure;Samples;Min_cycle;Max_cycle;Signal;HPM_P1;HPM_P2
2020/12/30 00:02:06;;;;;;;11.60;7.57;;;3.20;78.80;;;;;;5077641;28;20092;-86
2020/12/30 00:04:32;;;;;;;10.73;7.15;;;3.20;78.80;;;;;;5074293;28;20028;-86
2020/12/30 00:06:57;;;;;;;11.60;7.18;;;3.20;78.80;;;;;;5058966;28;20040;-86
2020/12/30 00:09:23;;;;;;;11.55;8.40;;;3.20;79.40;;;;;;5061227;28;20381;-86
2020/12/30 00:11:48;;;;;;;11.23;7.97;;;3.20;78.80;;;;;;5058139;28;20035;-86
2020/12/30 00:14:14;;;;;;;10.68;7.55;;;3.20;78.90;;;;;;5058315;28;20050;-87
2020/12/30 00:16:40;;;;;;;10.43;7.40;;;3.20;78.90;;;;;;5054955;28;20060;-87
2020/12/30 00:19:05;;;;;;;10.60;7.72;;;3.20;78.90;;;;;;5057696;28;20063;-86
2020/12/30 00:21:31;;;;;;;10.30;7.93;;;3.10;78.80;;;;;;5056140;28;20028;-87
2020/12/30 00:23:56;;;;;;;10.52;7.53;;;3.10;78.80;;;;;;5056421;28;20094;-87
2020/12/30 00:26:22;;;;;;;12.85;8.25;;;3.10;78.90;;;;;;5057850;28;20039;-86
2020/12/30 00:28:48;;;;;;;13.88;8.15;;;3.10;78.90;;;;;;5055619;28;20033;-87
2020/12/30 00:31:13;;;;;;;12.05;7.85;;;3.10;78.90;;;;;;5077470;28;20484;-87
2020/12/30 00:33:39;;;;;;;14.18;8.45;;;3.10;79.00;;;;;;5066527;28;20043;-86
2020/12/30 00:36:06;;;;;;;11.45;7.38;;;3.10;79.00;;;;;;5040530;28;20020;-87
2020/12/30 00:38:32;;;;;;;12.02;8.23;;;3.10;79.00;;;;;;5073327;28;20031;-86
2020/12/30 00:40:57;;;;;;;11.73;7.90;;;3.10;79.10;;;;;;5057970;28;20081;-87
2020/12/30 00:43:23;;;;;;;11.63;7.22;;;3.10;79.10;;;;;;5057654;28;20035;-87
2020/12/30 00:45:49;;;;;;;10.85;7.68;;;3.10;79.10;;;;;;5088958;28;20035;-87
2020/12/30 00:48:14;;;;;;;9.85;7.40;;;3.10;79.20;;;;;;5057116;28;20185;-86
2020/12/30 00:50:40;;;;;;;11.60;8.23;;;3.10;79.20;;;;;;5070488;28;20504;-87
2020/12/30 00:53:05;;;;;;;10.85;7.50;;;3.10;79.20;;;;;;5057443;28;20028;-87
2020/12/30 00:55:31;;;;;;;11.75;8.18;;;3.10;79.30;;;;;;5090283;28;20535;-87
2020/12/30 00:57:56;;;;;;;11.40;8.32;;;3.10;79.30;;;;;;5056487;28;20089;-87
2020/12/30 01:00:22;;;;;;;11.85;8.07;;;3.10;79.30;;;;;;5073244;28;20385;-87
2020/12/30 01:02:48;;;;;;;10.68;7.15;;;3.10;79.30;;;;;;5056693;28;20031;-87
2020/12/30 01:05:13;;;;;;;12.50;8.35;;;3.10;79.30;;;;;;5071734;28;20036;-87
2020/12/30 01:07:39;;;;;;;13.55;8.57;;;3.10;79.20;;;;;;5073673;28;20111;-86
2020/12/30 01:10:05;;;;;;;12.13;8.52;;;3.10;79.30;;;;;;5057491;28;20028;-87
2020/12/30 01:12:31;;;;;;;13.18;8.93;;;3.20;79.40;;;;;;5073690;28;20404;-87
2020/12/30 01:14:57;;;;;;;13.07;9.32;;;3.20;79.40;;;;;;5073754;28;20036;-87
2020/12/30 01:17:26;;;;;;;13.52;9.00;;;3.20;79.40;;;;;;5072632;28;20081;-87
2020/12/30 01:19:52;;;;;;;12.48;8.55;;;3.20;79.50;;;;;;5090383;28;20028;-87
2020/12/30 01:22:17;;;;;;;11.43;8.38;;;3.20;80.10;;;;;;5065966;28;20162;-86
2020/12/30 01:24:43;;;;;;;12.30;8.65;;;3.20;79.50;;;;;;5052533;28;20135;-87
2020/12/30 01:27:09;;;;;;;13.55;9.00;;;3.20;79.50;;;;;;5074186;28;20036;-88
2020/12/30 01:29:34;;;;;;;12.05;7.97;;;3.20;79.50;;;;;;5057913;28;20047;-87
2020/12/30 01:32:02;;;;;;;10.65;8.07;;;3.20;79.60;;;;;;5071642;28;20032;-87
2020/12/30 01:34:28;;;;;;;12.50;8.70;;;3.20;79.60;;;;;;5070283;28;20032;-87
2020/12/30 01:36:53;;;;;;;13.10;8.48;;;3.20;79.70;;;;;;5093537;28;20020;-87
2020/12/30 01:39:19;;;;;;;15.07;8.98;;;3.20;79.70;;;;;;5077734;28;20386;-88
2020/12/30 01:41:46;;;;;;;13.82;9.90;;;3.20;79.70;;;;;;5074133;28;20033;-87
2020/12/30 01:44:11;;;;;;;12.85;8.93;;;3.20;79.70;;;;;;5073907;28;20041;-88
2020/12/30 01:46:42;;;;;;;13.60;9.02;;;3.20;79.70;;;;;;5071872;28;20034;-87
2020/12/30 01:49:25;;;;;;;12.50;8.98;;;3.20;79.70;;;;;;5094877;28;20463;-87
2020/12/30 01:51:53;;;;;;;13.95;8.85;;;3.20;79.70;;;;;;5073838;28;20056;-88
2020/12/30 01:54:19;;;;;;;13.65;9.30;;;3.20;79.60;;;;;;5065586;28;20082;-88
2020/12/30 01:56:47;;;;;;;12.80;8.70;;;3.10;79.60;;;;;;5077433;28;20133;-87
2020/12/30 01:59:16;;;;;;;12.90;9.20;;;3.20;79.60;;;;;;5088311;28;20060;-88
2020/12/30 02:01:46;;;;;;;15.02;9.27;;;3.20;79.60;;;;;;5085895;28;20122;-88
2020/12/30 02:04:17;;;;;;;12.20;8.48;;;3.20;79.60;;;;;;5095580;28;20087;-88
2020/12/30 02:06:42;;;;;;;12.20;8.85;;;3.20;79.60;;;;;;5081331;28;20039;-88
2020/12/30 02:09:08;;;;;;;11.80;8.57;;;3.20;79.70;;;;;;5094193;28;20032;-88
2020/12/30 02:11:34;;;;;;;13.85;8.90;;;3.20;79.70;;;;;;5077044;28;20381;-88
2020/12/30 02:14:05;;;;;;;13.73;9.38;;;3.20;79.60;;;;;;5094880;28;20542;-88
2020/12/30 02:16:31;;;;;;;13.02;9.18;;;3.20;79.70;;;;;;5092322;28;20016;-88
2020/12/30 02:18:58;;;;;;;14.70;9.45;;;3.10;79.60;;;;;;5077235;28;20111;-88
2020/12/30 02:21:24;;;;;;;13.43;8.90;;;3.10;79.60;;;;;;5090057;28;20025;-88
2020/12/30 02:23:53;;;;;;;13.93;9.70;;;3.10;79.60;;;;;;5089057;28;20512;-88
2020/12/30 02:26:19;;;;;;;14.00;10.25;;;3.10;79.60;;;;;;5091498;28;20354;-87
2020/12/30 02:28:44;;;;;;;13.32;9.52;;;3.10;79.60;;;;;;5079544;28;20113;-88
2020/12/30 02:31:10;;;;;;;15.27;9.63;;;3.10;79.70;;;;;;5064015;28;20123;-87
2020/12/30 02:33:35;;;;;;;13.38;9.13;;;3.10;79.80;;;;;;5079853;28;20481;-87
2020/12/30 02:36:01;;;;;;;13.75;9.45;;;3.10;79.70;;;;;;5095577;28;20031;-88
2020/12/30 02:38:27;;;;;;;14.98;9.75;;;3.10;79.70;;;;;;5063293;28;20031;-87
2020/12/30 02:40:52;;;;;;;14.30;9.43;;;3.10;79.70;;;;;;5079035;28;20118;-88
2020/12/30 02:43:18;;;;;;;16.38;10.73;;;3.10;79.80;;;;;;5062982;28;20461;-88
2020/12/30 02:45:43;;;;;;;15.77;10.43;;;3.10;79.80;;;;;;5062945;28;20040;-87
2020/12/30 02:48:09;;;;;;;16.52;10.05;;;3.10;79.90;;;;;;5062253;28;20464;-88
2020/12/30 02:50:35;;;;;;;14.50;9.70;;;3.10;79.80;;;;;;5114302;28;20088;-88
2020/12/30 02:53:00;;;;;;;15.52;9.77;;;3.10;79.90;;;;;;5053151;28;20028;-87
2020/12/30 02:55:26;;;;;;;16.48;10.18;;;3.10;79.90;;;;;;5043278;28;20119;-87
2020/12/30 02:57:51;;;;;;;15.23;9.95;;;3.10;79.90;;;;;;5043162;28;20031;-88
2020/12/30 03:00:17;;;;;;;14.20;9.82;;;3.10;79.90;;;;;;5059937;28;20115;-87
2020/12/30 03:02:42;;;;;;;15.75;10.70;;;3.10;80.00;;;;;;5074517;28;20096;-87
2020/12/30 03:05:08;;;;;;;14.70;9.98;;;3.10;80.00;;;;;;5084702;28;20039;-87
2020/12/30 03:07:34;;;;;;;14.77;9.73;;;3.20;80.00;;;;;;5062358;28;20149;-87
2020/12/30 03:09:59;;;;;;;14.93;9.50;;;3.10;79.90;;;;;;5057479;28;20028;-87
2020/12/30 03:12:25;;;;;;;14.77;9.82;;;3.10;79.90;;;;;;5060596;28;20115;-87
2020/12/30 03:14:50;;;;;;;14.05;9.85;;;3.20;79.90;;;;;;5093871;28;20393;-87
2020/12/30 03:17:16;;;;;;;15.02;9.43;;;3.10;79.80;;;;;;5047645;28;20023;-87
2020/12/30 03:19:42;;;;;;;17.85;10.40;;;3.10;80.50;;;;;;5078842;28;20104;-87
2020/12/30 03:22:07;;;;;;;17.45;10.57;;;3.20;79.80;;;;;;5062971;28;20023;-87
2020/12/30 03:24:33;;;;;;;15.45;10.45;;;3.20;79.80;;;;;;5057266;28;20056;-87
2020/12/30 03:26:58;;;;;;;16.27;10.68;;;3.20;79.90;;;;;;5079261;28;20084;-87
2020/12/30 03:29:24;;;;;;;16.83;11.32;;;3.20;79.90;;;;;;5074265;28;20495;-87
2020/12/30 03:31:50;;;;;;;17.52;12.13;;;3.20;79.90;;;;;;5058839;28;20032;-87
2020/12/30 03:34:15;;;;;;;15.63;11.02;;;3.20;80.10;;;;;;5059109;28;20485;-87
2020/12/30 03:36:41;;;;;;;17.70;12.27;;;3.20;80.20;;;;;;5075634;28;20039;-87
2020/12/30 03:39:07;;;;;;;18.23;11.60;;;3.20;80.30;;;;;;5089645;28;20047;-87
2020/12/30 03:41:33;;;;;;;16.67;12.40;;;3.30;80.30;;;;;;5078044;28;20422;-87
2020/12/30 03:43:58;;;;;;;18.70;12.70;;;3.20;80.30;;;;;;5095544;28;20032;-84
2020/12/30 03:46:24;;;;;;;23.65;15.45;;;3.20;80.50;;;;;;5086563;28;20059;-84
2020/12/30 03:48:49;;;;;;;20.30;14.20;;;3.30;80.80;;;;;;5074486;28;20397;-84
2020/12/30 03:51:15;;;;;;;19.63;12.43;;;3.30;81.00;;;;;;5058763;28;20028;-83
2020/12/30 03:53:41;;;;;;;20.17;13.18;;;3.30;81.00;;;;;;5073853;28;20055;-83
2020/12/30 03:56:07;;;;;;;20.17;13.13;;;3.30;81.00;;;;;;5057968;28;20032;-84
2020/12/30 03:58:32;;;;;;;17.42;12.50;;;3.30;81.00;;;;;;5074018;28;20441;-83
2020/12/30 04:00:58;;;;;;;20.75;14.35;;;3.30;81.10;;;;;;5057837;28;20592;-84
2020/12/30 04:03:23;;;;;;;23.17;14.75;;;3.30;81.00;;;;;;5062510;28;20122;-84
2020/12/30 04:05:50;;;;;;;22.75;14.27;;;3.40;81.10;;;;;;5077523;28;20229;-83
2020/12/30 04:08:17;;;;;;;21.20;14.13;;;3.40;81.20;;;;;;5078096;28;20043;-84
2020/12/30 04:10:45;;;;;;;19.70;13.65;;;3.40;81.30;;;;;;5057452;28;20508;-83
2020/12/30 04:13:11;;;;;;;17.87;12.50;;;3.40;81.30;;;;;;5041008;28;20039;-83
2020/12/30 04:15:37;;;;;;;17.65;11.95;;;3.40;81.20;;;;;;5057175;28;20393;-84
2020/12/30 04:18:02;;;;;;;18.48;13.32;;;3.50;81.10;;;;;;5057602;28;20032;-84
2020/12/30 04:20:28;;;;;;;20.58;14.02;;;3.40;80.90;;;;;;5092472;28;20481;-87
2020/12/30 04:25:24;;;;;;;19.92;13.45;;;3.50;81.10;;;;;;5080462;28;20053;-85
2020/12/30 04:27:50;;;;;;;19.63;13.77;;;3.50;81.00;;;;;;5072119;28;20032;-86
2020/12/30 04:30:16;;;;;;;19.23;14.07;;;3.50;81.00;;;;;;5057826;28;20028;-85
2020/12/30 04:32:41;;;;;;;20.83;14.75;;;3.50;81.10;;;;;;5074057;28;20139;-86
2020/12/30 04:35:07;;;;;;;20.27;13.98;;;3.50;81.30;;;;;;5074526;28;20028;-86
2020/12/30 04:37:33;;;;;;;19.30;12.73;;;3.50;81.30;;;;;;5073875;28;20032;-85
2020/12/30 04:39:58;;;;;;;19.13;13.40;;;3.50;81.30;;;;;;5057324;28;20028;-86
2020/12/30 04:42:36;;;;;;;19.95;12.63;;;3.50;81.20;;;;;;5037823;28;20039;-86
2020/12/30 04:45:09;;;;;;;21.30;13.80;;;3.60;81.40;;;;;;5054300;28;20028;-86
2020/12/30 04:47:35;;;;;;;24.35;14.75;;;3.60;81.40;;;;;;5072915;28;20032;-86
2020/12/30 04:50:02;;;;;;;21.35;13.93;;;3.60;81.50;;;;;;5062175;28;20032;-85
2020/12/30 04:52:28;;;;;;;23.52;15.10;;;3.60;81.60;;;;;;5072925;28;20028;-86
2020/12/30 04:54:54;;;;;;;22.75;15.40;;;3.60;81.60;;;;;;5073289;28;20039;-85
2020/12/30 04:57:58;;;;;;;23.13;15.40;;;3.60;81.70;;;;;;5092124;28;20035;-86
2020/12/30 05:00:25;;;;;;;22.75;14.00;;;3.60;81.70;;;;;;5060390;28;20514;-86
2020/12/30 05:02:52;;;;;;;22.17;14.43;;;3.60;81.60;;;;;;5070716;28;20046;-86
2020/12/30 05:05:18;;;;;;;22.52;13.98;;;3.60;81.50;;;;;;5091306;28;20369;-86
2020/12/30 05:07:45;;;;;;;20.17;14.20;;;3.70;81.60;;;;;;5072976;28;20085;-86
2020/12/30 05:10:14;;;;;;;20.67;13.88;;;3.70;81.60;;;;;;5073781;28;20036;-86
2020/12/30 05:12:43;;;;;;;22.52;14.52;;;3.70;81.60;;;;;;5040106;28;20032;-86
2020/12/30 05:15:09;;;;;;;;;;;3.70;81.50;;;;;;5092001;28;20038;-86
2020/12/30 05:17:34;;;;;;;21.58;14.48;;;3.70;81.50;;;;;;5091105;28;19916;-86
2020/12/30 05:20:00;;;;;;;22.98;14.10;;;3.70;81.50;;;;;;5057175;28;20036;-86
2020/12/30 05:22:26;;;;;;;22.38;14.75;;;3.70;81.50;;;;;;5073642;28;20440;-86
2020/12/30 05:24:52;;;;;;;23.08;13.52;;;3.70;81.50;;;;;;5072846;28;20472;-86
2020/12/30 05:27:19;;;;;;;22.75;14.48;;;3.70;81.50;;;;;;5092077;28;20028;-86
2020/12/30 05:29:50;;;;;;;23.40;15.40;;;3.70;81.50;;;;;;5072797;28;20067;-86
2020/12/30 05:32:19;;;;;;;23.88;15.10;;;3.70;81.50;;;;;;5073997;28;20066;-87
2020/12/30 05:34:45;;;;;;;23.95;14.90;;;3.80;81.60;;;;;;5073077;28;20035;-87
2020/12/30 05:37:13;;;;;;;21.65;13.85;;;3.70;81.50;;;;;;5091843;28;20439;-86
2020/12/30 05:39:39;;;;;;;21.85;14.25;;;3.80;81.50;;;;;;5086310;28;20421;-86
2020/12/30 05:42:08;;;;;;;25.17;16.15;;;3.80;81.50;;;;;;5053819;28;20029;-86
2020/12/30 05:44:34;;;;;;;25.50;16.40;;;3.80;81.50;;;;;;5069778;28;20032;-86
2020/12/30 05:47:20;;;;;;;24.55;16.02;;;3.80;81.70;;;;;;5070878;28;20047;-87
2020/12/30 05:49:48;;;;;;;22.17;15.02;;;3.80;81.60;;;;;;5095383;28;20447;-87
2020/12/30 05:52:25;;;;;;;20.48;14.48;;;3.80;82.20;;;;;;5082576;28;20025;-87
2020/12/30 05:54:52;;;;;;;24.17;15.02;;;3.80;81.70;;;;;;5080016;28;20028;-86
2020/12/30 05:57:20;;;;;;;22.30;14.63;;;3.80;81.70;;;;;;5087460;28;20531;-87
2020/12/30 05:59:46;;;;;;;21.15;13.30;;;3.80;81.70;;;;;;5073045;28;20040;-88
2020/12/30 06:02:12;;;;;;;19.55;13.18;;;3.80;81.70;;;;;;5057141;28;20028;-87
2020/12/30 06:04:38;;;;;;;19.15;12.68;;;3.90;81.80;;;;;;5073001;28;20075;-88
2020/12/30 06:07:03;;;;;;;22.90;13.98;;;3.90;81.70;;;;;;5049946;28;20056;-88
2020/12/30 06:09:37;;;;;;;24.10;14.30;;;3.80;81.60;;;;;;5065645;28;20178;-87
2020/12/30 06:12:06;;;;;;;20.75;13.88;;;3.90;81.70;;;;;;5072915;28;20024;-87
2020/12/30 06:14:32;;;;;;;20.05;12.55;;;3.90;81.60;;;;;;5071052;28;20047;-87
2020/12/30 06:17:02;;;;;;;18.55;12.65;;;3.90;81.50;;;;;;5055989;28;20029;-87
2020/12/30 06:19:28;;;;;;;20.25;12.98;;;3.90;81.50;;;;;;5057950;28;20067;-87
2020/12/30 06:21:53;;;;;;;17.73;12.10;;;3.90;81.50;;;;;;5074198;28;20473;-87
2020/12/30 06:24:19;;;;;;;18.52;12.98;;;3.90;81.40;;;;;;5059642;28;20109;-85
2020/12/30 06:26:45;;;;;;;20.33;13.00;;;3.90;81.40;;;;;;5077853;28;20139;-89
2020/12/30 06:29:15;;;;;;;19.80;12.50;;;4.00;81.40;;;;;;5061727;28;20040;-89
2020/12/30 06:31:46;;;;;;;18.45;12.25;;;3.90;81.30;;;;;;5087559;28;20028;-90
2020/12/30 06:34:13;;;;;;;19.40;12.90;;;3.90;81.30;;;;;;5096553;28;20449;-90
2020/12/30 06:36:40;;;;;;;19.52;12.80;;;3.90;81.30;;;;;;5058315;28;20123;-89
2020/12/30 06:39:20;;;;;;;18.08;11.65;;;3.90;81.20;;;;;;5059783;28;20024;-90
2020/12/30 06:42:03;;;;;;;18.85;12.25;;;4.00;81.20;;;;;;5077609;28;20020;-90
2020/12/30 06:44:40;;;;;;;16.92;11.20;;;4.00;81.20;;;;;;5076090;28;20081;-88
2020/12/30 06:47:08;;;;;;;19.35;12.63;;;4.00;81.20;;;;;;5082816;28;20036;-85
2020/12/30 06:49:34;;;;;;;18.17;12.32;;;4.00;81.20;;;;;;5069846;28;20077;-87
2020/12/30 06:52:00;;;;;;;20.77;12.98;;;3.90;81.10;;;;;;5052707;28;20036;-86
2020/12/30 06:54:47;;;;;;;18.40;12.52;;;3.90;81.10;;;;;;5046585;28;20072;-87
2020/12/30 06:57:37;;;;;;;17.75;11.05;;;3.90;81.20;;;;;;5077142;28;20044;-86
2020/12/30 07:00:31;;;;;;;16.52;11.63;;;3.90;81.10;;;;;;5065087;28;20032;-86
2020/12/30 07:03:16;;;;;;;17.70;11.93;;;3.90;81.00;;;;;;5076880;28;20044;-86
2020/12/30 07:05:43;;;;;;;18.67;13.00;;;3.90;81.00;;;;;;5094611;28;20028;-83
2020/12/30 07:08:09;;;;;;;19.67;11.27;;;3.90;81.00;;;;;;5094736;28;20028;-83
2020/12/30 07:10:45;;;;;;;19.92;12.57;;;3.90;81.00;;;;;;5076631;28;20039;-84
2020/12/30 07:13:37;;;;;;;19.13;12.10;;;3.90;81.00;;;;;;5059719;28;20059;-83
2020/12/30 07:16:13;;;;;;;22.30;12.52;;;3.90;81.00;;;;;;5091588;28;20099;-83
2020/12/30 07:18:38;;;;;;;16.90;10.88;;;3.90;81.10;;;;;;5076322;28;20082;-83
2020/12/30 07:21:15;;;;;;;17.95;12.35;;;3.90;81.10;;;;;;5059796;28;20465;-84
2020/12/30 07:23:42;;;;;;;21.58;12.82;;;3.90;81.00;;;;;;5059068;28;20050;-84
2020/12/30 07:26:19;;;;;;;17.70;11.55;;;3.90;81.00;;;;;;5076303;28;20032;-83
2020/12/30 07:28:45;;;;;;;23.58;13.75;;;3.90;81.10;;;;;;5094152;28;20051;-84
2020/12/30 07:31:12;;;;;;;20.45;13.27;;;3.90;81.20;;;;;;5094347;28;20399;-83
2020/12/30 07:33:38;;;;;;;25.73;15.18;;;3.90;81.20;;;;;;5075783;28;20051;-84
2020/12/30 07:36:05;;;;;;;24.42;14.90;;;3.90;81.30;;;;;;5043145;28;20029;-84
2020/12/30 07:38:36;;;;;;;25.70;15.63;;;3.90;81.40;;;;;;5057555;28;20441;-84
2020/12/30 07:41:08;;;;;;;24.30;15.38;;;3.90;81.90;;;;;;5055896;28;20055;-85
2020/12/30 07:43:52;;;;;;;26.23;16.23;;;3.90;82.30;;;;;;5057560;28;21401;-85
2020/12/30 07:46:21;;;;;;;26.17;15.85;;;3.90;81.70;;;;;;5059868;28;20082;-85
2020/12/30 07:48:51;;;;;;;23.67;15.18;;;3.90;81.70;;;;;;5039059;28;20055;-85
2020/12/30 07:51:16;;;;;;;25.90;16.08;;;3.90;81.70;;;;;;5055886;28;20029;-85
2020/12/30 07:53:51;;;;;;;24.23;15.10;;;3.90;81.90;;;;;;5055315;28;20040;-85
2020/12/30 07:56:24;;;;;;;23.17;14.93;;;4.00;82.20;;;;;;5073865;28;20020;-84
2020/12/30 07:58:50;;;;;;;23.02;14.07;;;3.90;81.90;;;;;;5076952;28;20024;-85
2020/12/30 08:01:19;;;;;;;25.38;15.82;;;4.00;81.90;;;;;;5075684;28;20047;-86
2020/12/30 08:03:45;;;;;;;25.17;15.57;;;4.00;81.90;;;;;;5061170;28;20489;-85
2020/12/30 08:06:11;;;;;;;25.40;14.88;;;4.00;81.90;;;;;;5090955;28;20039;-84
2020/12/30 08:08:44;;;;;;;24.05;15.93;;;4.00;82.00;;;;;;5093670;28;20048;-84
2020/12/30 08:11:10;;;;;;;22.45;14.82;;;4.00;82.10;;;;;;5074520;28;20032;-83
2020/12/30 08:13:38;;;;;;;23.98;15.00;;;4.00;82.00;;;;;;5074561;28;20454;-84
2020/12/30 08:16:04;;;;;;;23.87;14.80;;;4.00;81.90;;;;;;5075002;28;20381;-84
2020/12/30 08:18:30;;;;;;;23.30;15.00;;;4.10;82.00;;;;;;5075450;28;20656;-83
2020/12/30 08:20:55;;;;;;;24.65;15.35;;;4.00;82.00;;;;;;5075474;28;20027;-84
2020/12/30 08:23:21;;;;;;;26.35;16.42;;;4.00;82.10;;;;;;5058235;28;20086;-84
2020/12/30 08:25:48;;;;;;;25.63;15.60;;;4.10;82.10;;;;;;5074824;28;20050;-84
2020/12/30 08:28:14;;;;;;;25.13;16.13;;;4.10;82.10;;;;;;5058275;28;20430;-84
2020/12/30 08:30:42;;;;;;;25.63;15.50;;;4.10;82.10;;;;;;5073862;28;20031;-84
2020/12/30 08:33:11;;;;;;;23.27;14.32;;;4.10;82.10;;;;;;5038475;28;20445;-83
2020/12/30 08:35:46;;;;;;;;;;;4.10;82.10;;;;;;5073289;28;20052;-84
2020/12/30 08:38:14;;;;;;;25.40;15.02;;;4.10;82.20;;;;;;5071626;28;19905;-83
2020/12/30 08:40:42;;;;;;;24.40;15.65;;;4.10;82.00;;;;;;5049281;28;20385;-84
2020/12/30 08:43:10;;;;;;;27.42;15.50;;;4.10;82.10;;;;;;5074967;28;20032;-84
2020/12/30 08:45:44;;;;;;;23.48;14.95;;;4.10;82.10;;;;;;5091788;28;20526;-83
2020/12/30 08:48:20;;;;;;;28.92;17.55;;;4.10;82.20;;;;;;5075010;28;20849;-83
2020/12/30 08:50:46;;;;;;;27.85;17.17;;;4.20;82.50;;;;;;5092895;28;20024;-82
2020/12/30 08:53:13;;;;;;;28.75;16.80;;;4.20;82.50;;;;;;5074764;28;20024;-85
2020/12/30 08:55:39;;;;;;;28.17;16.73;;;4.20;82.40;;;;;;5058199;28;20024;-84
2020/12/30 08:58:05;;;;;;;29.90;17.48;;;4.20;82.40;;;;;;5074166;28;20030;-82
2020/12/30 09:00:37;;;;;;;28.73;18.08;;;4.30;82.50;;;;;;5074516;28;20028;-83
2020/12/30 09:03:14;;;;;;;31.17;18.25;;;4.30;82.70;;;;;;5074425;28;20073;-83
2020/12/30 09:05:49;;;;;;;30.70;18.65;;;4.30;82.80;;;;;;5074961;28;20447;-84
2020/12/30 09:08:16;;;;;;;31.02;17.95;;;4.30;83.00;;;;;;5072550;28;20031;-83
2020/12/30 09:10:46;;;;;;;28.98;16.92;;;4.30;83.00;;;;;;5057907;28;20024;-84
2020/12/30 09:13:12;;;;;;;28.85;17.98;;;4.30;83.00;;;;;;5074474;28;20016;-84
2020/12/30 09:15:40;;;;;;;27.80;17.65;;;4.30;82.90;;;;;;5082243;28;20032;-84
2020/12/30 09:18:06;;;;;;;31.33;19.45;;;4.40;83.00;;;;;;5059176;28;20028;-84
2020/12/30 09:20:33;;;;;;;30.60;18.20;;;4.40;83.10;;;;;;5058064;28;20030;-84
2020/12/30 09:23:03;;;;;;;27.52;18.23;;;4.40;83.30;;;;;;5057493;28;20028;-85
2020/12/30 09:25:31;;;;;;;31.55;18.83;;;4.50;84.00;;;;;;5074086;28;20036;-85
2020/12/30 09:27:57;;;;;;;25.90;17.17;;;4.50;83.30;;;;;;5074117;28;20028;-83
2020/12/30 09:30:27;;;;;;;31.50;17.92;;;4.50;83.30;;;;;;5074783;28;20032;-83
2020/12/30 09:33:09;;;;;;;31.08;19.73;;;4.60;83.50;;;;;;5073982;28;20035;-83
2020/12/30 09:35:34;;;;;;;31.60;19.27;;;4.50;83.50;;;;;;5087918;28;20402;-83
2020/12/30 09:38:02;;;;;;;30.52;18.70;;;4.60;83.70;;;;;;5046256;28;20032;-84
2020/12/30 09:40:28;;;;;;;28.30;17.80;;;4.60;83.60;;;;;;5071874;28;20024;-83
2020/12/30 09:43:17;;;;;;;29.02;18.23;;;4.60;83.60;;;;;;5037146;28;20033;-83
2020/12/30 09:45:44;;;;;;;30.40;18.75;;;4.70;83.80;;;;;;5064935;28;20032;-83
2020/12/30 09:48:10;;;;;;;28.30;17.88;;;4.70;83.80;;;;;;5090921;28;20180;-83
2020/12/30 09:50:37;;;;;;;30.20;18.25;;;4.70;83.70;;;;;;5072057;28;20038;-84
2020/12/30 09:53:03;;;;;;;29.13;18.27;;;4.70;83.60;;;;;;5071913;28;20032;-83
2020/12/30 09:55:28;;;;;;;32.72;19.55;;;4.70;83.70;;;;;;5072213;28;20555;-83
2020/12/30 09:57:54;;;;;;;26.52;17.20;;;4.80;83.80;;;;;;5092739;28;20016;-83
2020/12/30 10:00:19;;;;;;;28.60;17.25;;;4.80;83.80;;;;;;5060514;28;20678;-83
2020/12/30 10:02:45;;;;;;;28.02;18.10;;;4.80;83.70;;;;;;5072908;28;20024;-83
2020/12/30 10:05:10;;;;;;;30.27;18.90;;;4.80;83.70;;;;;;5059925;28;20650;-84
2020/12/30 10:07:36;;;;;;;28.85;17.38;;;4.80;83.80;;;;;;5064966;28;20032;-82
2020/12/30 10:10:03;;;;;;;29.23;16.85;;;4.90;83.80;;;;;;5089242;28;20029;-83
2020/12/30 10:12:28;;;;;;;27.55;17.33;;;4.90;83.70;;;;;;5066230;28;20045;-83
2020/12/30 10:14:54;;;;;;;25.38;16.40;;;4.90;83.60;;;;;;5057822;28;20115;-85
2020/12/30 10:17:19;;;;;;;27.23;16.90;;;4.90;83.60;;;;;;5051533;28;20036;-84
2020/12/30 10:19:45;;;;;;;29.70;18.17;;;4.90;83.60;;;;;;5041065;28;20040;-84
2020/12/30 10:22:12;;;;;;;36.05;17.75;;;5.00;83.80;;;;;;5040476;28;20062;-84
2020/12/30 10:24:44;;;;;;;29.73;18.45;;;5.00;83.90;;;;;;5093786;22;20052;-85
2020/12/30 10:27:16;;;;;;;26.10;16.90;;;5.00;84.00;;;;;;5093960;28;20044;-85
2020/12/30 10:29:43;;;;;;;27.90;16.83;;;5.00;84.00;;;;;;5077466;28;20032;-85
2020/12/30 10:32:08;;;;;;;27.13;16.33;;;5.10;83.90;;;;;;5068257;28;20143;-85
2020/12/30 10:34:35;;;;;;;31.15;18.90;;;5.10;83.80;;;;;;5082658;28;20107;-85
2020/12/30 10:37:05;;;;;;;28.67;18.02;;;5.10;83.80;;;;;;5078423;28;20031;-85
2020/12/30 10:39:31;;;;;;;27.15;17.08;;;5.10;83.90;;;;;;5064211;28;20488;-85
2020/12/30 10:41:58;;;;;;;26.80;17.40;;;5.20;83.80;;;;;;5090481;28;20153;-85
2020/12/30 10:44:24;;;;;;;26.45;16.17;;;5.20;83.80;;;;;;5093388;28;20097;-84
2020/12/30 10:46:50;;;;;;;28.40;17.73;;;5.20;83.80;;;;;;5073904;28;20029;-85
2020/12/30 10:49:19;;;;;;;25.75;17.05;;;5.20;83.90;;;;;;5073895;28;20029;-85
2020/12/30 10:51:46;;;;;;;25.83;16.90;;;5.30;83.90;;;;;;5074993;28;20104;-85
2020/12/30 10:54:12;;;;;;;30.00;17.02;;;5.30;83.90;;;;;;5081461;28;20040;-86
2020/12/30 10:56:37;;;;;;;30.10;18.55;;;5.30;84.00;;;;;;5094067;28;20032;-85
2020/12/30 10:59:04;;;;;;;29.08;18.50;;;5.40;84.10;;;;;;5076963;28;20547;-85
2020/12/30 11:01:29;;;;;;;29.05;17.20;;;5.40;84.10;;;;;;5073418;28;20020;-85
2020/12/30 11:03:55;;;;;;;26.27;16.65;;;5.40;84.10;;;;;;5039910;28;20460;-85
2020/12/30 11:06:20;;;;;;;25.33;16.00;;;5.40;84.00;;;;;;5056983;28;20489;-85
2020/12/30 11:08:47;;;;;;;25.23;16.08;;;5.40;84.00;;;;;;5072268;28;20028;-85
2020/12/30 11:11:13;;;;;;;27.52;16.83;;;5.50;83.90;;;;;;5056688;28;20032;-84
2020/12/30 11:13:38;;;;;;;24.85;15.93;;;5.50;83.90;;;;;;5040986;28;20032;-85
2020/12/30 11:16:04;;;;;;;26.00;15.98;;;5.60;83.90;;;;;;5092793;28;20024;-86
2020/12/30 11:18:30;;;;;;;29.60;17.83;;;5.50;83.80;;;;;;5076875;28;20020;-86
2020/12/30 11:20:55;;;;;;;25.90;15.68;;;5.60;83.80;;;;;;5059548;28;20416;-85
2020/12/30 11:23:21;;;;;;;27.33;17.67;;;5.60;83.80;;;;;;5076814;28;20036;-85
2020/12/30 11:25:47;;;;;;;25.73;17.08;;;5.70;83.70;;;;;;5079442;28;20028;-86
2020/12/30 11:28:13;;;;;;;25.80;16.98;;;5.70;83.60;;;;;;5061147;28;20020;-85
2020/12/30 11:30:40;;;;;;;25.85;15.63;;;5.70;83.60;;;;;;5086614;28;20119;-86
2020/12/30 11:33:06;;;;;;;26.85;16.50;;;5.70;83.50;;;;;;5058221;28;20016;-85
2020/12/30 11:35:32;;;;;;;29.23;17.33;;;5.80;83.60;;;;;;5094301;28;20098;-85
2020/12/30 11:37:58;;;;;;;28.80;18.42;;;5.80;83.60;;;;;;5093844;28;20051;-86
2020/12/30 11:40:26;;;;;;;24.63;16.65;;;5.80;83.70;;;;;;5094558;28;20027;-85
2020/12/30 11:42:52;;;;;;;24.80;17.05;;;5.80;83.70;;;;;;5092690;28;20543;-86
2020/12/30 11:45:18;;;;;;;30.10;18.08;;;5.90;83.70;;;;;;5088305;28;20024;-85
2020/12/30 11:47:43;;;;;;;28.70;18.20;;;5.90;83.80;;;;;;5076282;28;20519;-86
2020/12/30 11:50:09;;;;;;;25.30;16.50;;;5.90;83.80;;;;;;5059563;28;20028;-83
2020/12/30 11:52:35;;;;;;;29.13;17.67;;;5.90;83.80;;;;;;5059703;28;20036;-84
2020/12/30 11:55:00;;;;;;;26.15;18.13;;;5.90;83.70;;;;;;5075788;28;20035;-84
2020/12/30 11:57:29;;;;;;;25.33;16.08;;;6.00;83.90;;;;;;5062574;28;20358;-85
2020/12/30 11:59:55;;;;;;;27.60;16.30;;;6.00;83.80;;;;;;5096008;28;20072;-85
2020/12/30 12:02:21;;;;;;;29.30;18.25;;;6.00;84.20;;;;;;5095190;28;20482;-85
2020/12/30 12:04:47;;;;;;;30.30;19.38;;;6.00;83.70;;;;;;5076122;28;20028;-86
2020/12/30 12:07:12;;;;;;;30.83;19.73;;;6.00;83.90;;;;;;5059138;28;20135;-86
2020/12/30 12:09:39;;;;;;;27.02;17.15;;;6.10;83.90;;;;;;5094380;28;20051;-86
2020/12/30 12:12:05;;;;;;;29.33;18.45;;;6.10;83.90;;;;;;5075480;28;20036;-86
2020/12/30 12:14:30;;;;;;;29.63;18.08;;;6.10;84.10;;;;;;5043790;28;20105;-85
2020/12/30 12:16:57;;;;;;;25.33;17.35;;;6.10;84.00;;;;;;5088757;28;20028;-86
2020/12/30 12:19:24;;;;;;;27.20;17.30;;;6.10;84.00;;;;;;5062748;28;20062;-87
2020/12/30 12:21:50;;;;;;;23.33;15.45;;;6.20;83.90;;;;;;5073996;28;20031;-86
2020/12/30 12:24:16;;;;;;;28.17;17.95;;;6.20;83.90;;;;;;5073731;28;20044;-84
2020/12/30 12:26:42;;;;;;;26.52;16.90;;;6.20;83.90;;;;;;5101092;28;20035;-85
2020/12/30 12:29:35;;;;;;;23.08;15.57;;;6.20;83.90;;;;;;5077594;28;20081;-86
2020/12/30 12:32:02;;;;;;;23.50;15.55;;;6.20;83.80;;;;;;5091950;28;20042;-86
2020/12/30 12:34:27;;;;;;;24.70;16.00;;;6.30;83.70;;;;;;5077974;28;20020;-86
2020/12/30 12:36:53;;;;;;;22.58;15.77;;;6.30;83.80;;;;;;5094712;28;20023;-86
2020/12/30 12:39:18;;;;;;;23.40;15.60;;;6.30;83.80;;;;;;5056190;28;20020;-86
2020/12/30 12:41:44;;;;;;;21.42;14.38;;;6.30;83.80;;;;;;5078370;28;20024;-85
2020/12/30 12:44:10;;;;;;;20.05;14.27;;;6.30;83.70;;;;;;5047051;28;20036;-86
2020/12/30 12:46:35;;;;;;;27.27;15.93;;;6.40;83.70;;;;;;5041361;28;20031;-85